Time;durP1;ratioP1;P1;durP2;ratioP2;P2;SDS_P1;SDS_P2;PMS_P1;PMS_P2;Temp;Humidity;BMP_temperature;BMP_pressure;BME280_temperature;BME280_humidity;BME280_pressure;Samples;Min_cycle;Max_cycle;Signal;HPM_P1;HPM_P2
2021/03/04 00:00:34;;;;;;;25.30;15.50;;;;;;;-0.25;79.67;99779.99;1755487;81;21558;-39
2021/03/04 00:03:05;;;;;;;22.48;13.88;;;;;;;-0.25;79.72;99773.33;1755480;80;21597;-39
2021/03/04 00:05:34;;;;;;;24.32;13.55;;;;;;;-0.20;79.79;99774.63;1755491;81;21476;-40
2021/03/04 00:08:04;;;;;;;23.90;13.13;;;;;;;-0.12;79.58;99764.69;1755387;81;21202;-40
2021/03/04 00:10:33;;;;;;;22.50;13.13;;;;;;;-0.16;79.65;99766.33;1755425;81;21228;-39
2021/03/04 00:13:01;;;;;;;22.40;13.60;;;;;;;-0.16;79.72;99752.47;1768030;79;21138;-39
2021/03/04 00:15:31;;;;;;;29.70;15.80;;;;;;;-0.09;79.65;99741.47;1785742;80;21585;-40
2021/03/04 00:17:59;;;;;;;;;;;;;;;-0.10;79.74;99733.24;1783296;80;21287;-40
2021/03/04 00:20:30;;;;;;;23.12;13.40;;;;;;;-0.11;79.69;99733.78;1755302;80;20266;-39
2021/03/04 00:22:58;;;;;;;22.98;14.35;;;;;;;-0.11;79.86;99728.45;1719035;83;21184;-40
2021/03/04 00:25:33;;;;;;;23.93;14.60;;;;;;;-0.10;79.78;99715.36;1755609;81;21142;-39
2021/03/04 00:28:05;;;;;;;23.55;13.83;;;;;;;-0.12;79.95;99709.53;1747194;80;21614;-39
2021/03/04 00:30:33;;;;;;;32.60;19.30;;;;;;;-0.49;80.03;99648.06;1772206;80;21383;-39
2021/03/04 00:33:01;;;;;;;29.07;16.12;;;;;;;-0.07;80.13;99704.69;1769923;81;21629;-39
2021/03/04 00:35:30;;;;;;;33.30;17.60;;;;;;;-0.08;80.27;99698.56;1769995;81;21139;-39
2021/03/04 00:37:59;;;;;;;30.05;17.57;;;;;;;-0.07;80.46;99692.70;1766192;81;21181;-39
2021/03/04 00:40:27;;;;;;;34.10;18.87;;;;;;;0.02;80.30;99688.34;1764715;81;21143;-39
2021/03/04 00:42:55;;;;;;;28.42;15.98;;;;;;;0.03;80.20;99686.48;1764599;81;21237;-39
2021/03/04 00:45:24;;;;;;;29.52;19.23;;;;;;;0.03;80.26;99685.14;1764679;81;21199;-39
2021/03/04 00:47:54;;;;;;;35.88;19.20;;;;;;;0.07;80.29;99682.96;1762768;79;21154;-40
2021/03/04 00:50:23;;;;;;;45.33;21.20;;;;;;;0.13;80.20;99685.84;1764823;80;21656;-39
2021/03/04 00:52:51;;;;;;;37.17;20.23;;;;;;;0.11;80.35;99682.65;1764786;81;21123;-39
2021/03/04 00:55:20;;;;;;;40.03;22.37;;;;;;;0.10;80.59;99677.05;1764624;81;21279;-39
2021/03/04 00:57:48;;;;;;;47.88;23.25;;;;;;;0.12;80.66;99673.58;1764635;80;20969;-39
2021/03/04 01:00:18;;;;;;;46.20;23.70;;;;;;;0.13;80.64;99667.18;1764752;81;21040;-39
2021/03/04 01:02:48;;;;;;;29.87;15.38;;;;;;;0.10;80.81;99651.73;1764771;80;21150;-39
2021/03/04 01:05:25;;;;;;;39.50;19.95;;;;;;;0.17;80.85;99640.20;1808675;78;22489;-39
2021/03/04 01:07:55;;;;;;;;;;;;;;;0.17;80.75;99646.08;1786484;80;20995;-39
2021/03/04 01:10:33;;;;;;;43.68;22.07;;;;;;;0.16;80.78;99639.95;1783780;80;23508;-38
2021/03/04 01:13:01;;;;;;;41.35;22.55;;;;;;;0.09;81.04;99618.72;1783875;80;21024;-38
2021/03/04 01:15:31;;;;;;;34.95;18.25;;;;;;;0.15;80.89;99626.89;1791419;79;21605;-38
2021/03/04 01:18:00;;;;;;;40.63;21.45;;;;;;;0.16;80.98;99617.28;1816033;79;20992;-38
2021/03/04 01:20:28;;;;;;;38.45;19.73;;;;;;;0.14;81.09;99608.80;1812449;79;20993;-39
2021/03/04 01:22:57;;;;;;;47.05;23.95;;;;;;;0.16;81.23;99609.28;1797034;79;21275;-38
2021/03/04 01:25:26;;;;;;;48.13;26.00;;;;;;;0.24;81.24;99604.64;1797625;79;21589;-38
2021/03/04 01:27:55;;;;;;;48.83;23.73;;;;;;;0.27;81.13;99608.09;1815156;78;21036;-38
2021/03/04 01:30:29;;;;;;;50.90;26.20;;;;;;;0.30;81.18;99603.52;1749071;82;21120;-38
2021/03/04 01:32:59;;;;;;;48.20;26.80;;;;;;;0.33;81.24;99600.30;1778240;80;21138;-38
2021/03/04 01:35:28;;;;;;;47.03;23.47;;;;;;;0.47;80.86;99595.05;1779994;80;21432;-38
2021/03/04 01:37:56;;;;;;;52.05;26.35;;;;;;;0.51;80.71;99591.25;1748933;82;21189;-38
2021/03/04 01:40:24;;;;;;;50.52;26.93;;;;;;;0.50;80.79;99589.66;1747488;82;21147;-38
2021/03/04 01:44:43;;;;;;;49.25;27.40;;;;;;;0.59;80.84;99568.72;1809368;77;22554;-39
2021/03/04 01:47:11;;;;;;;56.83;28.02;;;;;;;0.52;81.06;99582.18;1786416;79;20916;-38
2021/03/04 01:49:41;;;;;;;52.90;26.50;;;;;;;0.56;81.09;99567.18;1816494;79;22226;-39
2021/03/04 01:52:09;;;;;;;48.10;25.92;;;;;;;0.59;81.06;99566.59;1816066;78;21608;-38
2021/03/04 01:54:37;;;;;;;52.67;26.62;;;;;;;0.67;80.91;99559.30;1816065;78;21107;-38
2021/03/04 01:57:06;;;;;;;46.90;25.48;;;;;;;0.73;80.72;99551.45;1816086;78;20988;-39
2021/03/04 01:59:34;;;;;;;57.10;28.40;;;;;;;0.74;80.65;99543.70;1816218;79;21123;-38
2021/03/04 02:02:02;;;;;;;56.00;29.45;;;;;;;0.77;80.60;99537.80;1815990;79;21368;-38
2021/03/04 02:04:31;;;;;;;57.48;29.80;;;;;;;0.80;80.41;99538.00;1815988;79;20933;-39
2021/03/04 02:07:16;;;;;;;58.58;28.42;;;;;;;0.87;80.22;99529.64;1810371;79;21576;-39
2021/03/04 02:09:50;;;;;;;60.03;28.55;;;;;;;0.94;80.17;99528.70;1771591;79;21145;-38
2021/03/04 02:12:22;;;;;;;51.88;25.75;;;;;;;0.92;80.20;99514.84;1781571;79;21197;-38
2021/03/04 02:14:56;;;;;;;54.75;29.20;;;;;;;0.90;80.23;99506.36;1783178;79;21400;-38
2021/03/04 02:17:27;;;;;;;58.68;32.40;;;;;;;0.95;80.16;99512.95;1802075;78;21673;-39
2021/03/04 02:20:05;;;;;;;62.50;30.15;;;;;;;1.02;80.11;99509.88;1783751;80;21142;-39
2021/03/04 02:22:57;;;;;;;61.65;32.00;;;;;;;1.00;80.13;99507.53;1783846;80;21122;-39
2021/03/04 02:25:41;;;;;;;60.58;32.45;;;;;;;0.97;80.21;99501.42;1719205;83;21407;-39
2021/03/04 02:28:10;;;;;;;55.10;29.30;;;;;;;0.95;80.23;99496.94;1742451;82;21290;-38
2021/03/04 02:30:39;;;;;;;67.47;32.65;;;;;;;0.98;80.22;99493.67;1749058;82;21162;-39
2021/03/04 02:33:22;;;;;;;71.15;35.03;;;;;;;0.98;80.30;99491.00;1719149;83;21177;-38
2021/03/04 02:35:53;;;;;;;52.60;27.80;;;;;;;1.01;80.35;99488.30;1717517;83;21048;-39
2021/03/04 02:38:21;;;;;;;57.30;32.10;;;;;;;1.05;80.24;99485.29;1716090;82;21162;-38
2021/03/04 02:40:52;;;;;;;62.13;32.67;;;;;;;1.12;79.95;99479.81;1754631;81;21427;-38
2021/03/04 02:43:22;;;;;;;60.38;33.23;;;;;;;1.18;79.86;99467.95;1734451;82;21211;-39
2021/03/04 02:45:52;;;;;;;63.00;32.90;;;;;;;1.21;79.74;99470.59;1732871;82;21071;-39
2021/03/04 02:48:22;;;;;;;56.90;30.20;;;;;;;1.20;79.63;99456.45;1741106;82;21316;-39
2021/03/04 02:50:52;;;;;;;59.20;31.93;;;;;;;1.24;79.44;99465.45;1804921;79;21570;-39
2021/03/04 02:53:21;;;;;;;52.50;29.63;;;;;;;1.29;79.06;99466.69;1738456;82;21263;-39
2021/03/04 02:55:50;;;;;;;46.90;26.27;;;;;;;1.27;78.88;99455.50;1768273;81;21158;-39
2021/03/04 02:58:18;;;;;;;44.23;24.82;;;;;;;1.24;78.72;99455.31;1715623;82;21197;-39
2021/03/04 03:00:47;;;;;;;50.80;27.70;;;;;;;1.15;78.62;99445.86;1736273;82;21159;-38
2021/03/04 03:03:15;;;;;;;46.53;27.00;;;;;;;1.09;78.67;99448.37;1737869;82;21143;-39
2021/03/04 03:05:45;;;;;;;49.33;27.25;;;;;;;1.12;78.60;99450.44;1768474;81;22320;-38
2021/03/04 03:08:17;;;;;;;56.75;29.35;;;;;;;1.11;78.64;99444.87;1768562;81;28680;-39
2021/03/04 03:10:50;;;;;;;46.80;26.95;;;;;;;1.06;78.63;99430.82;1737848;82;21024;-39
2021/03/04 03:13:20;;;;;;;51.45;29.40;;;;;;;1.06;78.74;99431.61;1736419;82;21175;-39
2021/03/04 03:15:51;;;;;;;;;;;;;;;1.09;78.59;99424.34;1740521;81;21183;-39
2021/03/04 03:18:19;;;;;;;45.30;26.97;;;;;;;0.97;79.02;99405.89;1763274;81;23237;-39
2021/03/04 03:20:47;;;;;;;52.70;28.02;;;;;;;0.97;79.02;99405.89;1754908;81;21599;-39
2021/03/04 03:23:16;;;;;;;49.38;27.87;;;;;;;0.94;78.72;99409.93;1724872;83;21146;-39
2021/03/04 03:25:44;;;;;;;52.08;29.48;;;;;;;0.98;78.56;99407.45;1724735;82;21184;-39
2021/03/04 03:28:13;;;;;;;49.93;27.82;;;;;;;1.01;78.37;99406.34;1724946;83;21122;-39
2021/03/04 03:30:42;;;;;;;45.63;26.37;;;;;;;1.03;78.27;99396.69;1724698;83;21293;-39
2021/03/04 03:33:13;;;;;;;54.50;28.20;;;;;;;1.03;78.26;99395.35;1724758;83;21368;-38
2021/03/04 03:35:42;;;;;;;52.20;27.70;;;;;;;1.00;78.13;99390.61;1724967;83;21586;-39
2021/03/04 03:38:11;;;;;;;49.73;28.17;;;;;;;1.00;77.98;99383.94;1740545;81;21573;-39
2021/03/04 03:40:45;;;;;;;49.08;28.10;;;;;;;1.04;77.63;99379.59;1754744;81;21157;-39
2021/03/04 03:43:15;;;;;;;49.55;27.73;;;;;;;1.06;77.38;99376.89;1754846;81;21380;-39
2021/03/04 03:45:45;;;;;;;54.48;28.80;;;;;;;1.04;77.29;99376.37;1754946;81;21183;-38
2021/03/04 03:48:16;;;;;;;49.60;28.87;;;;;;;1.02;77.06;99365.19;1755086;81;22179;-39
2021/03/04 03:50:49;;;;;;;49.77;27.40;;;;;;;1.00;76.90;99360.71;1755132;81;21190;-38
2021/03/04 03:53:17;;;;;;;45.30;26.27;;;;;;;1.04;76.59;99351.56;1815424;79;21209;-39
2021/03/04 03:55:48;;;;;;;43.58;25.30;;;;;;;1.08;76.22;99348.00;1748312;82;21401;-39
2021/03/04 03:58:17;;;;;;;45.83;25.48;;;;;;;1.02;76.00;99344.38;1774373;80;21612;-39
2021/03/04 04:00:46;;;;;;;43.35;24.85;;;;;;;0.93;75.98;99334.15;1815220;79;21012;-39
2021/03/04 04:03:14;;;;;;;44.27;26.00;;;;;;;0.88;75.91;99329.16;1815222;79;21177;-39
2021/03/04 04:05:42;;;;;;;45.15;24.90;;;;;;;0.91;75.74;99320.33;1748427;82;21168;-39
2021/03/04 04:08:12;;;;;;;42.97;24.40;;;;;;;0.92;75.58;99312.00;1779593;80;22173;-39
2021/03/04 04:10:40;;;;;;;43.87;24.77;;;;;;;0.88;75.58;99316.36;1780624;79;21612;-39
2021/03/04 04:13:10;;;;;;;40.00;23.52;;;;;;;0.85;75.50;99323.63;1746786;82;21171;-39
2021/03/04 04:15:38;;;;;;;46.42;26.52;;;;;;;0.79;75.37;99308.80;1771017;80;21202;-38
2021/03/04 04:18:06;;;;;;;38.35;21.37;;;;;;;0.79;75.29;99303.45;1766796;81;21171;-39
2021/03/04 04:20:36;;;;;;;;;;;;;;;0.80;75.21;99307.72;1786522;79;21263;-38
2021/03/04 04:23:05;;;;;;;46.73;25.88;;;;;;;0.73;75.19;99301.42;1796735;79;20288;-39
2021/03/04 04:25:33;;;;;;;44.60;24.92;;;;;;;0.59;75.58;99283.83;1796811;79;21163;-39
2021/03/04 04:28:01;;;;;;;46.63;26.12;;;;;;;0.62;75.48;99285.38;1803684;79;21153;-39
2021/03/04 04:30:30;;;;;;;45.08;25.10;;;;;;;0.64;75.48;99281.06;1748408;82;21180;-39
2021/03/04 04:32:59;;;;;;;44.23;26.55;;;;;;;0.64;75.33;99279.19;1779113;80;23521;-39
2021/03/04 04:35:27;;;;;;;43.80;25.60;;;;;;;0.60;75.33;99274.75;1815175;79;21161;-39
2021/03/04 04:37:55;;;;;;;48.85;25.25;;;;;;;0.59;75.30;99278.50;1748213;82;21666;-39
2021/03/04 04:40:24;;;;;;;44.45;25.55;;;;;;;0.56;75.31;99276.42;1779282;80;21067;-39
2021/03/04 04:42:52;;;;;;;46.45;25.08;;;;;;;0.58;75.20;99272.94;1815248;79;21608;-39
2021/03/04 04:45:20;;;;;;;49.73;27.42;;;;;;;0.62;75.09;99265.91;1755269;81;21339;-39
2021/03/04 04:47:48;;;;;;;47.62;25.37;;;;;;;0.58;75.20;99264.36;1777314;80;21613;-39
2021/03/04 04:50:17;;;;;;;43.38;26.30;;;;;;;0.54;75.23;99264.71;1724975;83;21194;-38
2021/03/04 04:52:45;;;;;;;41.45;24.23;;;;;;;0.54;75.21;99264.71;1724963;83;21052;-38
2021/03/04 04:55:14;;;;;;;42.03;24.32;;;;;;;0.56;75.12;99252.42;1724947;83;21159;-38
2021/03/04 04:57:42;;;;;;;46.88;26.40;;;;;;;0.56;75.11;99244.42;1756621;81;21353;-39
2021/03/04 05:00:12;;;;;;;46.30;25.85;;;;;;;0.55;75.12;99248.17;1724945;83;21178;-39
2021/03/04 05:02:40;;;;;;;47.25;26.42;;;;;;;0.61;75.02;99248.33;1756744;81;21715;-38
2021/03/04 05:05:09;;;;;;;46.05;26.00;;;;;;;0.65;74.93;99241.30;1724896;83;21655;-38
2021/03/04 05:07:37;;;;;;;42.15;26.02;;;;;;;0.65;74.97;99239.43;1756844;81;21119;-39
2021/03/04 05:10:08;;;;;;;46.40;25.80;;;;;;;0.66;75.00;99236.22;1725036;83;22194;-39
2021/03/04 05:12:36;;;;;;;44.70;25.85;;;;;;;0.69;74.84;99230.28;1756629;81;21190;-39
2021/03/04 05:15:07;;;;;;;45.05;25.80;;;;;;;0.76;74.77;99220.02;1724896;83;21063;-39
2021/03/04 05:17:36;;;;;;;51.55;27.20;;;;;;;0.82;74.68;99211.59;1783548;80;21126;-39
2021/03/04 05:20:09;;;;;;;47.88;27.37;;;;;;;0.82;74.64;99208.16;1800674;79;21155;-38
2021/03/04 05:22:37;;;;;;;47.38;27.13;;;;;;;0.84;74.72;99209.96;1726583;83;21391;-38
2021/03/04 05:25:07;;;;;;;49.98;27.90;;;;;;;0.58;74.70;99156.33;1724865;81;21468;-39
2021/03/04 05:27:35;;;;;;;48.52;27.30;;;;;;;0.96;74.53;99200.13;1786508;80;21099;-39
2021/03/04 05:30:06;;;;;;;48.00;26.50;;;;;;;0.96;74.56;99195.58;1756592;81;21106;-39
2021/03/04 05:32:35;;;;;;;52.10;27.93;;;;;;;0.95;74.80;99199.33;1755170;81;21166;-39
2021/03/04 05:35:04;;;;;;;50.70;26.87;;;;;;;0.92;75.00;99189.23;1756669;81;21499;-39
2021/03/04 05:37:32;;;;;;;33.70;18.70;;;;;;;0.90;75.27;99183.96;1757023;81;21181;-38
2021/03/04 05:40:00;;;;;;;46.30;25.60;;;;;;;0.91;75.55;99191.68;1756519;81;21602;-39
2021/03/04 05:42:32;;;;;;;51.90;29.10;;;;;;;0.92;75.70;99175.89;1756676;81;21187;-39
2021/03/04 05:45:00;;;;;;;54.48;29.67;;;;;;;1.00;75.73;99177.87;1734951;81;21474;-39
2021/03/04 05:47:29;;;;;;;46.48;26.85;;;;;;;1.00;75.95;99183.20;1735206;80;21667;-39
2021/03/04 05:50:04;;;;;;;38.10;19.82;;;;;;;1.03;76.09;99176.46;1776914;80;21218;-38
2021/03/04 05:52:37;;;;;;;48.13;26.75;;;;;;;1.04;76.24;99171.38;1776939;80;21111;-38
2021/03/04 05:55:07;;;;;;;49.93;28.07;;;;;;;1.10;76.21;99169.63;1776772;80;21131;-39
2021/03/04 05:57:35;;;;;;;54.15;29.57;;;;;;;1.19;76.29;99173.16;1776998;80;21115;-38
2021/03/04 06:00:06;;;;;;;52.73;28.85;;;;;;;1.24;76.29;99169.04;1776471;80;21209;-38
2021/03/04 06:02:35;;;;;;;48.17;26.73;;;;;;;1.29;76.44;99168.13;1776746;80;21166;-39
2021/03/04 06:05:05;;;;;;;52.78;29.40;;;;;;;1.34;76.45;99157.33;1777093;80;21550;-39
2021/03/04 06:07:34;;;;;;;48.00;27.20;;;;;;;1.43;76.40;99160.05;1776945;80;21171;-39
2021/03/04 06:10:06;;;;;;;53.50;29.80;;;;;;;1.56;76.29;99156.52;1776848;80;21158;-39
2021/03/04 06:12:34;;;;;;;58.40;30.32;;;;;;;1.62;76.18;99149.97;1776906;80;21196;-39
2021/03/04 06:15:03;;;;;;;51.28;28.30;;;;;;;1.64;76.23;99150.47;1776668;80;21166;-39
2021/03/04 06:17:31;;;;;;;50.70;29.60;;;;;;;1.65;76.33;99148.80;1776882;80;21542;-39
2021/03/04 06:20:01;;;;;;;50.45;29.37;;;;;;;1.66;76.40;99141.03;1776744;80;21617;-39
2021/03/04 06:22:32;;;;;;;49.83;27.90;;;;;;;1.72;76.51;99131.01;1725292;83;21210;-39
2021/03/04 06:25:11;;;;;;;61.77;30.37;;;;;;;1.85;76.26;99138.14;1725472;83;22277;-39
2021/03/04 06:27:42;;;;;;;54.00;30.40;;;;;;;1.91;76.26;99130.23;1736001;80;21196;-39
2021/03/04 06:30:16;;;;;;;56.95;29.87;;;;;;;1.93;76.38;99136.62;1746104;82;21651;-39
2021/03/04 06:32:58;;;;;;;50.92;29.63;;;;;;;1.94;76.45;99132.28;1746083;82;21670;-39
2021/03/04 06:35:41;;;;;;;53.13;30.08;;;;;;;2.01;76.53;99124.63;1746212;82;21188;-39
2021/03/04 06:38:20;;;;;;;53.55;30.48;;;;;;;2.15;76.34;99119.95;1753384;80;21332;-39
2021/03/04 06:40:50;;;;;;;44.98;25.45;;;;;;;2.24;76.13;99117.85;1755696;81;21589;-39
2021/03/04 06:43:20;;;;;;;58.95;31.57;;;;;;;2.28;76.18;99113.45;1755554;81;21648;-40
2021/03/04 06:45:48;;;;;;;42.80;24.70;;;;;;;2.33;76.21;99108.75;1773220;80;21202;-39
2021/03/04 06:48:22;;;;;;;49.53;28.30;;;;;;;2.43;76.16;99109.80;1781595;79;21594;-40
2021/03/04 06:50:59;;;;;;;51.25;28.42;;;;;;;2.56;75.90;99110.79;1815322;79;21356;-40
2021/03/04 06:53:29;;;;;;;47.93;28.83;;;;;;;2.63;75.84;99093.70;1815431;79;21622;-39
2021/03/04 06:56:05;;;;;;;51.02;28.30;;;;;;;2.67;75.85;99095.20;1748542;82;21220;-40
2021/03/04 06:58:39;;;;;;;53.13;28.70;;;;;;;2.74;75.74;99090.18;1779456;80;21613;-39
2021/03/04 07:01:12;;;;;;;55.33;30.72;;;;;;;2.81;75.60;99093.95;1815558;79;21605;-39
2021/03/04 07:03:45;;;;;;;57.38;30.37;;;;;;;2.94;75.28;99093.03;1815360;79;21354;-39
2021/03/04 07:06:18;;;;;;;60.73;32.58;;;;;;;3.02;74.68;99086.08;1810796;79;21413;-39
2021/03/04 07:08:56;;;;;;;53.33;28.85;;;;;;;3.12;74.43;99072.92;1855271;76;22740;-39
2021/03/04 07:11:25;;;;;;;53.10;28.92;;;;;;;3.18;73.98;99069.77;1829229;78;21027;-39
2021/03/04 07:13:53;;;;;;;51.23;29.15;;;;;;;3.29;73.52;99051.48;1764102;81;21217;-39
2021/03/04 07:16:46;;;;;;;44.18;25.75;;;;;;;3.37;73.37;99062.72;1774206;80;21048;-39
2021/03/04 07:21:55;;;;;;;44.85;25.92;;;;;;;3.55;72.66;99057.55;1882702;76;22666;-39
2021/03/04 07:24:24;;;;;;;49.25;29.30;;;;;;;3.64;72.60;99057.51;1859488;77;21031;-39
2021/03/04 07:26:52;;;;;;;49.95;29.42;;;;;;;3.74;72.28;99055.27;1854035;77;21527;-39
2021/03/04 07:29:21;;;;;;;48.68;28.90;;;;;;;3.85;72.28;99048.45;1789441;80;21043;-38
2021/03/04 07:31:50;;;;;;;43.02;22.67;;;;;;;4.01;71.78;99047.91;1821837;78;21134;-39
2021/03/04 07:34:19;;;;;;;48.20;27.85;;;;;;;4.18;71.17;99037.07;1821783;78;21035;-39
2021/03/04 07:36:51;;;;;;;53.35;28.62;;;;;;;4.28;70.64;99032.13;1789462;80;21534;-39
2021/03/04 07:39:33;;;;;;;50.28;28.35;;;;;;;4.35;69.99;99018.20;1821907;78;22114;-40
2021/03/04 07:42:06;;;;;;;44.75;25.92;;;;;;;4.41;69.92;99031.63;1789035;80;21064;-39
2021/03/04 07:44:34;;;;;;;45.73;26.00;;;;;;;4.53;69.31;99027.69;1790971;78;21037;-39
2021/03/04 07:47:07;;;;;;;43.80;26.77;;;;;;;4.68;68.82;99025.77;1821335;78;21170;-39
2021/03/04 07:49:41;;;;;;;47.00;28.15;;;;;;;4.82;68.54;99024.14;1805939;79;21602;-39
2021/03/04 07:52:12;;;;;;;49.18;28.95;;;;;;;4.93;68.31;99016.47;1805712;79;21216;-39
2021/03/04 07:54:43;;;;;;;45.92;26.02;;;;;;;5.05;67.77;99016.50;1805587;79;20977;-39
2021/03/04 07:57:13;;;;;;;45.65;27.05;;;;;;;5.19;67.62;99016.98;1805843;79;21106;-39
2021/03/04 07:59:59;;;;;;;48.48;27.98;;;;;;;5.36;67.00;99011.45;1805689;79;21151;-39
2021/03/04 08:05:20;;;;;;;47.78;28.40;;;;;;;5.71;65.64;99003.77;1808823;78;22809;-39
2021/03/04 08:07:49;;;;;;;45.65;26.80;;;;;;;5.78;65.48;98996.47;1783901;80;20932;-39
2021/03/04 08:10:19;;;;;;;;;;;;;;;5.85;65.03;98997.49;1751701;82;21224;-39
2021/03/04 08:13:00;;;;;;;42.98;25.88;;;;;;;5.95;64.92;98984.97;1749221;82;20675;-39
2021/03/04 08:15:42;;;;;;;46.70;27.48;;;;;;;5.96;64.95;98977.66;1747058;82;21024;-39
2021/03/04 08:18:19;;;;;;;43.17;26.23;;;;;;;6.08;64.72;98977.66;1763792;81;21075;-39
2021/03/04 08:20:49;;;;;;;43.15;26.07;;;;;;;6.27;64.39;98973.81;1753558;81;21033;-39
2021/03/04 08:23:17;;;;;;;45.45;26.48;;;;;;;6.49;63.77;98971.94;1733604;82;22287;-39
2021/03/04 08:25:46;;;;;;;48.02;28.40;;;;;;;6.63;63.04;98969.45;1735580;81;21019;-39
2021/03/04 08:28:26;;;;;;;40.83;25.65;;;;;;;6.79;63.05;98968.92;1764066;81;20999;-39
2021/03/04 08:30:54;;;;;;;45.43;27.17;;;;;;;6.95;62.79;98961.67;1733554;82;21142;-39
2021/03/04 08:33:22;;;;;;;47.55;28.07;;;;;;;7.11;62.62;98961.70;1744585;82;21610;-39
2021/03/04 08:35:52;;;;;;;45.65;28.80;;;;;;;7.28;61.94;98950.02;1744272;82;21199;-39
2021/03/04 08:38:21;;;;;;;46.88;28.42;;;;;;;7.38;61.36;98948.16;1744394;82;21199;-39
2021/03/04 08:40:56;;;;;;;41.18;26.20;;;;;;;7.51;61.09;98946.14;1744402;82;21586;-39
2021/03/04 08:43:28;;;;;;;44.10;26.75;;;;;;;7.63;60.79;98938.53;1744302;82;21200;-39
2021/03/04 08:46:05;;;;;;;47.00;29.40;;;;;;;7.71;60.07;98929.45;1744276;82;21188;-39
2021/03/04 08:48:33;;;;;;;43.63;27.17;;;;;;;7.76;59.54;98934.59;1786609;79;22274;-39
2021/03/04 08:51:06;;;;;;;46.88;28.90;;;;;;;7.78;59.95;98913.44;1810147;79;21586;-39
2021/03/04 08:53:34;;;;;;;44.40;27.87;;;;;;;7.85;59.98;98910.89;1810067;79;21127;-39
2021/03/04 08:56:07;;;;;;;45.23;25.90;;;;;;;7.87;59.49;98905.94;1810007;79;21161;-39
2021/03/04 08:58:42;;;;;;;44.08;26.37;;;;;;;7.88;59.49;98900.76;1810331;79;21115;-39
2021/03/04 09:01:12;;;;;;;47.15;28.17;;;;;;;7.88;59.40;98889.96;1810003;79;21259;-39
2021/03/04 09:03:44;;;;;;;44.70;25.97;;;;;;;7.96;59.28;98877.39;1809320;79;21198;-39
2021/03/04 09:06:16;;;;;;;41.77;25.62;;;;;;;8.09;58.80;98878.25;1807203;79;21155;-39
2021/03/04 09:08:48;;;;;;;43.30;25.57;;;;;;;8.26;58.34;98873.80;1804488;78;21847;-40
2021/03/04 09:11:32;;;;;;;42.40;27.37;;;;;;;8.36;57.94;98842.77;1804525;78;21098;-39
2021/03/04 09:14:09;;;;;;;43.60;27.17;;;;;;;8.65;57.21;98863.77;1804347;78;21377;-39
2021/03/04 09:16:51;;;;;;;42.80;25.75;;;;;;;8.82;56.67;98859.02;1804111;78;21131;-39
2021/03/04 09:19:32;;;;;;;43.10;27.05;;;;;;;8.89;56.06;98855.89;1737975;82;21117;-39
2021/03/04 09:22:03;;;;;;;42.17;26.80;;;;;;;8.88;55.91;98850.27;1734073;81;21167;-39
2021/03/04 09:24:32;;;;;;;40.25;25.75;;;;;;;8.87;55.94;98847.92;1724956;83;21146;-39
2021/03/04 09:27:03;;;;;;;39.45;26.20;;;;;;;8.89;56.10;98852.41;1766833;79;21194;-39
2021/03/04 09:29:33;;;;;;;42.03;25.90;;;;;;;8.92;56.21;98856.52;1772605;81;21042;-39
2021/03/04 09:32:02;;;;;;;44.18;27.60;;;;;;;8.97;56.23;98842.70;1772572;81;21585;-39
2021/03/04 09:34:41;;;;;;;48.40;28.42;;;;;;;9.11;56.15;98838.88;1772591;81;21601;-39
2021/03/04 09:37:25;;;;;;;40.55;26.95;;;;;;;9.32;55.71;98828.19;1780119;79;21637;-39
2021/03/04 09:39:55;;;;;;;45.75;28.47;;;;;;;9.53;55.11;98817.69;1792800;78;21419;-39
2021/03/04 09:42:37;;;;;;;45.55;29.48;;;;;;;9.74;54.28;98822.02;1793043;78;21132;-40
2021/03/04 09:45:11;;;;;;;42.10;28.05;;;;;;;9.88;53.73;98830.33;1792770;78;21137;-39
2021/03/04 09:47:50;;;;;;;45.50;28.38;;;;;;;10.00;53.61;98816.56;1795888;79;21115;-39
2021/03/04 09:50:24;;;;;;;41.75;27.37;;;;;;;10.14;53.43;98804.34;1804445;79;21094;-39
2021/03/04 09:53:06;;;;;;;42.75;26.15;;;;;;;10.26;52.96;98805.48;1804423;79;22112;-39
2021/03/04 09:55:42;;;;;;;42.35;28.38;;;;;;;10.37;52.96;98803.65;1737907;82;21583;-40
2021/03/04 09:58:17;;;;;;;42.08;28.10;;;;;;;10.41;52.31;98801.75;1768637;81;21184;-39
2021/03/04 10:00:46;;;;;;;46.70;29.42;;;;;;;10.42;52.58;98789.77;1738015;82;21130;-39
2021/03/04 10:03:16;;;;;;;44.13;28.47;;;;;;;10.39;52.22;98798.08;1736354;82;21171;-39
2021/03/04 10:05:51;;;;;;;41.13;27.30;;;;;;;10.38;51.98;98802.50;1755006;81;22208;-39
2021/03/04 10:08:19;;;;;;;43.20;28.12;;;;;;;10.40;51.95;98794.80;1788396;80;21102;-39
2021/03/04 10:10:50;;;;;;;43.75;27.80;;;;;;;10.46;52.05;98790.58;1827253;78;21038;-39
2021/03/04 10:13:28;;;;;;;45.95;26.15;;;;;;;10.52;51.79;98787.75;1757300;81;21072;-39
2021/03/04 10:16:08;;;;;;;41.30;27.42;;;;;;;10.44;51.89;98794.25;1776862;80;21154;-39
2021/03/04 10:18:37;;;;;;;40.73;27.17;;;;;;;10.31;52.33;98783.48;1772945;80;21193;-39
2021/03/04 10:21:05;;;;;;;40.80;25.97;;;;;;;10.25;52.28;98776.83;1800986;78;21141;-40
2021/03/04 10:23:33;;;;;;;42.30;27.48;;;;;;;10.27;52.05;98765.03;1808558;79;21190;-39
2021/03/04 10:26:02;;;;;;;42.30;26.70;;;;;;;10.33;52.64;98763.55;1811296;78;21122;-39
2021/03/04 10:28:30;;;;;;;40.30;26.68;;;;;;;10.48;52.28;98763.90;1827388;78;21197;-39
2021/03/04 10:30:58;;;;;;;37.88;25.82;;;;;;;10.61;52.34;98752.98;1827413;78;21478;-40
2021/03/04 10:33:28;;;;;;;39.60;26.35;;;;;;;10.73;51.73;98752.71;1827268;78;21166;-40
2021/03/04 10:35:57;;;;;;;42.70;27.42;;;;;;;10.78;51.76;98753.72;1827346;78;21039;-39
2021/03/04 10:38:26;;;;;;;42.08;27.85;;;;;;;10.79;51.80;98743.66;1764272;80;21419;-39
2021/03/04 10:40:54;;;;;;;43.30;27.35;;;;;;;10.74;51.68;98740.72;1726907;83;21167;-40
2021/03/04 10:43:22;;;;;;;37.33;24.75;;;;;;;10.72;51.96;98707.77;1757128;81;21367;-39
2021/03/04 10:45:51;;;;;;;42.90;27.48;;;;;;;10.72;52.21;98733.52;1794544;80;21026;-40
2021/03/04 10:48:21;;;;;;;41.15;27.17;;;;;;;10.75;52.40;98732.77;1743894;81;26569;-40
2021/03/04 10:50:50;;;;;;;41.53;25.57;;;;;;;10.76;52.52;98718.06;1788511;80;22033;-39
2021/03/04 10:53:20;;;;;;;41.33;26.55;;;;;;;10.78;52.43;98727.97;1827267;78;21142;-40
2021/03/04 10:55:50;;;;;;;44.13;27.30;;;;;;;10.89;52.34;98719.31;1827305;78;21204;-39
2021/03/04 10:58:18;;;;;;;39.63;25.80;;;;;;;11.04;52.58;98720.77;1827242;78;21146;-40
2021/03/04 11:00:46;;;;;;;38.28;26.40;;;;;;;11.17;52.54;98713.89;1827172;78;21027;-40
2021/03/04 11:03:15;;;;;;;41.10;26.80;;;;;;;11.33;52.76;98704.28;1827421;78;21553;-40
2021/03/04 11:05:44;;;;;;;41.53;26.57;;;;;;;11.50;52.21;98704.18;1804946;78;21112;-40
2021/03/04 11:08:13;;;;;;;40.12;25.62;;;;;;;11.66;50.57;98693.78;1796977;79;21358;-40
2021/03/04 11:10:41;;;;;;;39.33;25.55;;;;;;;11.68;50.23;98696.88;1796825;79;21187;-40
2021/03/04 11:13:09;;;;;;;37.98;24.37;;;;;;;11.60;49.67;98689.09;1797011;79;21118;-40
2021/03/04 11:15:37;;;;;;;37.13;25.23;;;;;;;11.49;49.53;98687.69;1793390;79;21186;-40
2021/03/04 11:18:06;;;;;;;38.40;26.90;;;;;;;11.37;49.27;98678.53;1780852;80;21134;-40
2021/03/04 11:20:34;;;;;;;37.55;26.07;;;;;;;11.25;49.72;98677.49;1780882;80;21710;-39
2021/03/04 11:23:02;;;;;;;36.25;25.68;;;;;;;11.09;49.72;98672.94;1780734;80;21146;-40
2021/03/04 11:25:30;;;;;;;38.48;26.10;;;;;;;10.99;50.29;98668.26;1780806;80;21040;-40
2021/03/04 11:27:58;;;;;;;37.35;25.60;;;;;;;10.98;50.63;98681.03;1780653;80;21173;-40
2021/03/04 11:30:28;;;;;;;35.33;25.72;;;;;;;11.04;50.48;98670.58;1780779;80;21190;-39
2021/03/04 11:32:58;;;;;;;34.57;24.63;;;;;;;11.07;50.51;98665.20;1781121;80;21370;-40
2021/03/04 11:35:29;;;;;;;39.05;25.30;;;;;;;11.05;50.88;98662.65;1780732;80;21231;-40
2021/03/04 11:37:58;;;;;;;36.40;25.60;;;;;;;10.96;50.64;98652.72;1780830;80;21225;-40
2021/03/04 11:40:27;;;;;;;40.60;24.65;;;;;;;10.82;51.09;98655.55;1780745;80;21166;-40
2021/03/04 11:42:55;;;;;;;39.67;25.88;;;;;;;10.69;51.58;98663.80;1780722;80;21147;-40
2021/03/04 11:45:24;;;;;;;36.80;25.68;;;;;;;10.57;51.88;98649.17;1780863;80;21197;-39
2021/03/04 11:47:52;;;;;;;38.38;24.45;;;;;;;10.48;52.29;98646.02;1780732;80;21282;-40